Time;durP1;ratioP1;P1;durP2;ratioP2;P2;SDS_P1;SDS_P2;PMS_P1;PMS_P2;Temp;Humidity;BMP_temperature;BMP_pressure;BME280_temperature;BME280_humidity;BME280_pressure;Samples;Min_cycle;Max_cycle;Signal;HPM_P1;HPM_P2
2022/08/23 00:02:25;;;;;;;10.23;5.90;;;14.00;99.90;;;;;;5019160;28;20045;-61
2022/08/23 00:04:53;;;;;;;7.68;5.32;;;14.00;99.90;;;;;;5014677;28;20131;-61
2022/08/23 00:07:35;;;;;;;8.68;5.20;;;14.00;99.90;;;;;;5015439;28;20064;-62
2022/08/23 00:10:06;;;;;;;5.85;4.32;;;13.90;99.90;;;;;;5018903;28;20041;-62
2022/08/23 00:12:33;;;;;;;4.65;4.20;;;13.90;99.90;;;;;;5034844;28;20568;-62
2022/08/23 00:15:00;;;;;;;10.18;5.03;;;13.80;99.90;;;;;;5021171;28;20060;-61
2022/08/23 00:17:27;;;;;;;5.70;4.85;;;13.80;99.90;;;;;;5015320;28;20050;-62
2022/08/23 00:20:05;;;;;;;6.68;4.63;;;13.80;99.90;;;;;;5030900;28;20533;-62
2022/08/23 00:22:32;;;;;;;5.53;4.72;;;13.80;99.90;;;;;;5034527;28;20507;-61
2022/08/23 00:24:59;;;;;;;12.85;5.50;;;13.80;99.90;;;;;;5034848;28;20127;-62
2022/08/23 00:27:26;;;;;;;;;;;13.80;99.90;;;;;;5035319;28;20063;-62
2022/08/23 00:29:56;;;;;;;10.83;5.57;;;13.80;99.90;;;;;;5032562;28;20051;-62
2022/08/23 00:32:32;;;;;;;6.65;4.93;;;13.70;99.90;;;;;;5033511;28;20075;-62
2022/08/23 00:34:59;;;;;;;7.93;5.15;;;13.70;99.90;;;;;;5034844;28;20048;-63
2022/08/23 00:37:28;;;;;;;6.40;5.00;;;13.70;99.90;;;;;;5033408;28;20204;-62
2022/08/23 00:39:55;;;;;;;6.07;5.05;;;13.70;99.90;;;;;;5033073;28;20049;-61
2022/08/23 00:48:29;;;;;;;8.55;5.13;;;13.50;99.90;;;;;;5032288;28;20090;-62
2022/08/23 00:51:17;;;;;;;8.65;5.43;;;13.50;99.90;;;;;;5033020;28;20048;-62
2022/08/23 00:53:50;;;;;;;7.40;5.57;;;13.50;99.90;;;;;;5034508;28;20041;-62
2022/08/23 00:56:19;;;;;;;5.60;4.97;;;13.40;99.90;;;;;;5013133;28;20034;-62
2022/08/23 00:58:47;;;;;;;12.35;6.25;;;13.40;99.90;;;;;;5014966;28;20033;-62
2022/08/23 01:01:14;;;;;;;5.95;4.82;;;13.40;99.90;;;;;;5014469;28;20099;-62
2022/08/23 01:03:48;;;;;;;5.43;4.55;;;13.40;99.90;;;;;;5012634;28;20130;-62
2022/08/23 01:06:54;;;;;;;12.00;5.25;;;13.40;99.90;;;;;;4997433;28;20045;-62
2022/08/23 01:09:21;;;;;;;10.32;5.43;;;13.40;99.90;;;;;;5014732;28;20057;-64
2022/08/23 01:11:48;;;;;;;7.05;4.93;;;13.40;99.90;;;;;;5031636;28;20146;-62
2022/08/23 01:14:24;;;;;;;6.43;5.00;;;13.40;99.90;;;;;;5027265;28;20137;-62
2022/08/23 01:17:07;;;;;;;7.57;5.15;;;13.40;99.90;;;;;;5013891;28;20045;-62
2022/08/23 01:19:45;;;;;;;7.03;4.82;;;13.40;99.90;;;;;;5029603;28;20563;-62
2022/08/23 01:22:26;;;;;;;8.55;5.22;;;13.40;99.90;;;;;;5037805;28;20459;-62
2022/08/23 01:24:54;;;;;;;7.85;5.03;;;13.30;99.90;;;;;;5037823;28;20041;-62
2022/08/23 01:27:38;;;;;;;7.47;5.25;;;13.30;99.90;;;;;;5036473;28;20392;-62
2022/08/23 01:30:07;;;;;;;6.20;5.05;;;13.30;99.90;;;;;;5036248;28;20041;-62
2022/08/23 01:32:43;;;;;;;5.95;5.15;;;13.30;99.90;;;;;;5036341;28;20067;-62
2022/08/23 01:35:10;;;;;;;5.15;4.57;;;13.20;99.90;;;;;;5035552;28;20570;-62
2022/08/23 01:37:37;;;;;;;7.65;4.93;;;13.20;99.90;;;;;;5037520;28;20626;-62
2022/08/23 01:40:05;;;;;;;11.10;5.38;;;13.20;99.90;;;;;;5037547;28;20047;-62
2022/08/23 01:42:31;;;;;;;6.05;5.15;;;13.20;99.90;;;;;;5037382;28;20065;-62
2022/08/23 01:44:58;;;;;;;6.60;5.00;;;13.10;99.90;;;;;;5037327;28;20041;-62
2022/08/23 01:47:26;;;;;;;7.53;5.85;;;13.10;99.90;;;;;;5035985;28;20045;-62
2022/08/23 01:49:53;;;;;;;11.45;5.50;;;13.10;99.90;;;;;;5035871;28;20137;-62
2022/08/23 01:52:20;;;;;;;7.70;5.18;;;13.10;99.90;;;;;;5037826;28;20876;-62
2022/08/23 01:54:48;;;;;;;6.63;5.40;;;13.00;99.90;;;;;;5019442;28;20045;-62
2022/08/23 01:57:14;;;;;;;;;;;13.00;99.90;;;;;;5017209;28;20045;-62
2022/08/23 01:59:43;;;;;;;6.25;5.32;;;13.00;99.90;;;;;;4999959;28;20055;-62
2022/08/23 02:02:10;;;;;;;7.45;5.45;;;13.00;99.90;;;;;;5015569;28;20042;-62
2022/08/23 02:04:37;;;;;;;8.13;5.60;;;13.00;99.90;;;;;;5016194;28;20605;-62
2022/08/23 02:07:03;;;;;;;;;;;13.00;99.90;;;;;;5017644;28;20049;-62
2022/08/23 02:09:30;;;;;;;7.78;4.75;;;13.00;99.90;;;;;;5016301;28;19986;-62
2022/08/23 02:11:59;;;;;;;5.47;4.40;;;13.00;99.90;;;;;;5034971;28;20037;-62
2022/08/23 02:14:27;;;;;;;5.63;4.50;;;13.10;99.90;;;;;;5026922;28;20046;-62
2022/08/23 02:16:57;;;;;;;5.55;4.53;;;13.00;99.90;;;;;;5016866;28;20099;-62
2022/08/23 02:19:33;;;;;;;5.10;4.35;;;13.00;99.90;;;;;;5028695;28;20041;-62
2022/08/23 02:22:01;;;;;;;5.93;4.80;;;13.00;99.90;;;;;;5035643;28;20045;-61
2022/08/23 02:24:30;;;;;;;4.57;4.00;;;12.90;99.90;;;;;;5035697;28;20745;-62
2022/08/23 02:27:01;;;;;;;6.65;5.13;;;12.90;99.90;;;;;;5036749;28;20047;-61
2022/08/23 02:29:29;;;;;;;7.30;5.38;;;12.90;99.90;;;;;;5033935;28;20053;-61
2022/08/23 02:31:59;;;;;;;6.95;5.03;;;12.90;99.90;;;;;;5034772;28;20044;-61
2022/08/23 02:34:27;;;;;;;8.75;4.82;;;12.80;99.90;;;;;;5035418;28;20159;-62
2022/08/23 02:36:54;;;;;;;5.30;4.80;;;12.80;99.90;;;;;;5034060;28;20102;-62
2022/08/23 02:39:23;;;;;;;5.72;4.70;;;12.80;99.90;;;;;;5035661;28;20105;-62
2022/08/23 02:41:50;;;;;;;7.05;4.38;;;12.70;99.90;;;;;;5035369;28;20044;-62
2022/08/23 02:44:19;;;;;;;5.10;4.60;;;12.70;99.90;;;;;;5035323;28;20041;-61
2022/08/23 02:46:46;;;;;;;7.85;5.15;;;12.60;99.90;;;;;;5034972;28;20068;-62
2022/08/23 02:49:14;;;;;;;5.70;4.97;;;12.60;99.90;;;;;;5035900;28;20071;-61
2022/08/23 02:51:43;;;;;;;5.70;4.85;;;12.60;99.90;;;;;;5034297;28;20049;-62
2022/08/23 02:54:09;;;;;;;7.88;4.90;;;12.60;99.90;;;;;;5036014;28;20039;-61
2022/08/23 02:56:36;;;;;;;;;;;12.60;99.90;;;;;;5029281;28;20037;-61
2022/08/23 02:59:04;;;;;;;6.25;4.93;;;12.60;99.90;;;;;;5013476;28;19925;-62
2022/08/23 03:01:35;;;;;;;5.85;5.25;;;12.60;99.90;;;;;;5015077;28;20069;-61
2022/08/23 03:04:15;;;;;;;6.78;5.22;;;12.50;99.90;;;;;;5032846;28;20048;-61
2022/08/23 03:06:41;;;;;;;8.10;5.72;;;12.60;99.90;;;;;;5018559;28;20055;-62
2022/08/23 03:09:08;;;;;;;;;;;12.60;99.90;;;;;;5036978;28;20069;-62
2022/08/23 03:11:35;;;;;;;6.03;5.22;;;12.60;99.90;;;;;;5034491;28;20031;-62
2022/08/23 03:14:04;;;;;;;8.55;4.82;;;12.60;99.90;;;;;;5029436;28;20738;-63
2022/08/23 03:16:31;;;;;;;7.93;5.13;;;12.60;99.90;;;;;;5017746;28;20042;-63
2022/08/23 03:19:01;;;;;;;8.40;5.18;;;12.60;99.90;;;;;;5022657;28;20098;-61
2022/08/23 03:21:28;;;;;;;8.18;5.43;;;12.60;99.90;;;;;;5033462;28;20517;-62
2022/08/23 03:23:54;;;;;;;;;;;12.60;99.90;;;;;;5036677;28;20706;-61
2022/08/23 03:26:22;;;;;;;11.70;5.28;;;12.60;99.90;;;;;;5033969;28;20434;-62
2022/08/23 03:28:50;;;;;;;11.32;5.50;;;12.70;99.90;;;;;;5033882;28;20041;-61
2022/08/23 03:31:17;;;;;;;6.50;5.35;;;12.70;99.90;;;;;;5033279;28;20181;-61
2022/08/23 03:33:58;;;;;;;8.05;5.28;;;12.60;99.90;;;;;;5034105;28;20415;-61
2022/08/23 03:36:25;;;;;;;;;;;12.60;99.90;;;;;;5033832;28;20052;-61
2022/08/23 03:38:55;;;;;;;4.45;3.80;;;12.60;99.90;;;;;;5034543;28;20012;-61
2022/08/23 03:41:23;;;;;;;6.25;4.97;;;12.60;99.90;;;;;;5034393;28;20462;-61
2022/08/23 03:43:51;;;;;;;6.72;5.45;;;12.60;99.90;;;;;;5033341;28;20048;-61
2022/08/23 03:46:22;;;;;;;12.82;5.32;;;12.60;99.90;;;;;;5034011;28;20418;-62
2022/08/23 03:48:56;;;;;;;9.88;5.72;;;12.60;99.90;;;;;;5033416;28;20073;-61
2022/08/23 03:51:25;;;;;;;6.68;5.43;;;12.60;99.90;;;;;;5033929;28;20045;-61
2022/08/23 03:53:55;;;;;;;7.47;4.93;;;12.50;99.90;;;;;;5033754;28;20041;-62
2022/08/23 03:56:38;;;;;;;6.20;4.60;;;12.50;99.90;;;;;;5033827;28;20148;-62
2022/08/23 03:59:10;;;;;;;6.57;4.72;;;12.50;99.90;;;;;;5013820;28;20052;-62
2022/08/23 04:01:37;;;;;;;7.88;4.97;;;12.50;99.90;;;;;;5014004;28;20805;-62
2022/08/23 04:04:04;;;;;;;7.72;4.55;;;12.50;99.90;;;;;;5013152;28;20041;-60
2022/08/23 04:06:32;;;;;;;5.55;4.53;;;12.50;99.90;;;;;;5013439;28;20045;-62
2022/08/23 04:08:59;;;;;;;7.07;4.60;;;12.50;99.90;;;;;;5015773;28;20045;-62
2022/08/23 04:11:26;;;;;;;7.03;4.75;;;12.50;99.90;;;;;;5028169;28;20037;-61
2022/08/23 04:14:02;;;;;;;7.20;5.10;;;12.50;99.90;;;;;;5018300;28;20052;-61
2022/08/23 04:16:35;;;;;;;9.05;5.72;;;12.50;99.90;;;;;;5032815;28;20238;-60
2022/08/23 04:19:03;;;;;;;8.48;4.57;;;12.50;99.90;;;;;;5033491;28;20043;-61
2022/08/23 04:21:31;;;;;;;5.88;5.03;;;12.40;99.90;;;;;;5032586;28;20132;-62
2022/08/23 04:23:58;;;;;;;6.57;4.97;;;12.40;99.90;;;;;;5016453;28;20041;-62
2022/08/23 04:26:25;;;;;;;6.30;4.85;;;12.40;99.90;;;;;;5033039;28;20057;-62
2022/08/23 04:28:56;;;;;;;8.07;5.32;;;12.40;99.90;;;;;;5033779;28;20051;-62
2022/08/23 04:31:25;;;;;;;7.90;5.05;;;12.40;99.90;;;;;;5033939;28;20041;-62
2022/08/23 04:33:55;;;;;;;8.20;4.72;;;12.40;99.90;;;;;;5032905;28;20077;-62
2022/08/23 04:36:22;;;;;;;8.65;4.80;;;12.40;99.90;;;;;;5032850;28;20064;-61
2022/08/23 04:38:51;;;;;;;7.65;4.95;;;12.40;99.90;;;;;;5032161;28;20037;-61
2022/08/23 04:44:04;;;;;;;5.55;4.82;;;12.40;99.90;;;;;;5032218;28;20063;-62
2022/08/23 04:46:35;;;;;;;5.93;4.85;;;12.40;99.90;;;;;;5033470;28;20057;-62
2022/08/23 04:49:02;;;;;;;5.22;4.47;;;12.40;99.90;;;;;;5032760;28;20045;-61
2022/08/23 04:51:29;;;;;;;6.55;4.80;;;12.40;99.90;;;;;;5015982;28;20041;-61
2022/08/23 04:53:56;;;;;;;;;;;12.40;99.90;;;;;;5033087;28;20578;-62
2022/08/23 04:56:42;;;;;;;7.70;5.72;;;12.40;99.90;;;;;;5019207;28;19924;-62
2022/08/23 04:59:10;;;;;;;7.65;5.43;;;12.50;99.90;;;;;;5022106;28;20081;-62
2022/08/23 05:01:41;;;;;;;11.32;5.13;;;12.50;99.90;;;;;;5011696;28;20041;-61
2022/08/23 05:04:09;;;;;;;6.68;5.07;;;12.60;99.90;;;;;;5012304;28;20041;-59
2022/08/23 05:06:38;;;;;;;8.95;5.10;;;12.60;99.90;;;;;;5012440;28;20060;-61
2022/08/23 05:09:05;;;;;;;;;;;12.70;99.90;;;;;;5013127;28;20052;-61
2022/08/23 05:11:35;;;;;;;8.07;4.88;;;12.80;99.90;;;;;;5028710;28;20868;-62
2022/08/23 05:14:02;;;;;;;13.98;5.43;;;12.80;99.90;;;;;;5027468;28;20056;-62
2022/08/23 05:16:29;;;;;;;8.20;5.00;;;12.80;99.90;;;;;;4997218;28;20073;-61
2022/08/23 05:19:01;;;;;;;5.80;4.68;;;12.90;99.90;;;;;;5020141;28;20060;-61
2022/08/23 05:21:31;;;;;;;7.00;5.53;;;13.00;99.90;;;;;;5032988;28;20049;-61
2022/08/23 05:23:59;;;;;;;;;;;13.10;99.90;;;;;;5032571;28;20053;-61
2022/08/23 05:26:28;;;;;;;6.63;5.82;;;13.10;99.90;;;;;;5031986;28;19925;-60
2022/08/23 05:28:55;;;;;;;6.15;4.43;;;13.20;99.90;;;;;;5034078;28;20041;-61
2022/08/23 05:31:29;;;;;;;11.20;5.43;;;13.30;99.90;;;;;;5033070;28;20052;-62
2022/08/23 05:33:58;;;;;;;5.43;4.78;;;13.30;99.90;;;;;;5031001;28;20107;-61
2022/08/23 05:36:40;;;;;;;6.47;4.63;;;13.40;99.90;;;;;;5032651;28;20140;-61
2022/08/23 05:39:22;;;;;;;5.82;4.72;;;13.40;99.90;;;;;;5032333;28;20837;-60
2022/08/23 05:42:09;;;;;;;5.57;4.40;;;13.50;99.90;;;;;;5034337;28;20160;-60
2022/08/23 05:44:36;;;;;;;5.43;3.92;;;13.60;99.90;;;;;;5032560;28;20562;-62
2022/08/23 05:47:07;;;;;;;6.47;4.38;;;13.60;99.90;;;;;;5032747;28;20084;-59
2022/08/23 05:49:53;;;;;;;8.70;5.10;;;13.70;99.90;;;;;;5033023;28;20134;-61
2022/08/23 05:52:21;;;;;;;22.40;6.75;;;13.80;99.90;;;;;;5032263;28;20048;-58
2022/08/23 05:56:42;;;;;;;146.88;17.05;;;13.90;99.90;;;;;;5092212;27;21524;-61
2022/08/23 05:59:15;;;;;;;110.70;15.15;;;14.00;99.90;;;;;;5088593;28;20047;-61
2022/08/23 06:01:43;;;;;;;37.03;8.73;;;14.10;99.90;;;;;;5088533;28;20912;-63
2022/08/23 06:04:15;;;;;;;21.33;5.72;;;14.20;99.90;;;;;;5090628;28;20113;-63
2022/08/23 06:06:43;;;;;;;34.28;7.10;;;14.30;99.90;;;;;;5091598;28;20052;-61
2022/08/23 06:09:13;;;;;;;11.90;4.85;;;14.50;99.90;;;;;;5092210;28;20046;-60
2022/08/23 06:11:44;;;;;;;10.48;6.07;;;14.50;99.90;;;;;;5090796;28;20077;-61
2022/08/23 06:14:12;;;;;;;7.35;4.60;;;14.60;99.90;;;;;;5089849;28;20051;-61
2022/08/23 06:16:45;;;;;;;7.15;4.07;;;14.70;99.90;;;;;;5090799;28;20046;-61
2022/08/23 06:19:15;;;;;;;18.27;5.40;;;14.80;99.90;;;;;;5088510;28;20138;-60
2022/08/23 06:21:48;;;;;;;6.82;4.75;;;14.90;99.90;;;;;;5090518;28;20062;-61
2022/08/23 06:24:22;;;;;;;9.75;4.40;;;15.00;99.90;;;;;;5089399;28;20464;-61
2022/08/23 06:26:53;;;;;;;4.57;3.97;;;15.10;99.90;;;;;;5091009;28;20043;-61
2022/08/23 06:29:20;;;;;;;7.85;4.90;;;15.20;99.90;;;;;;5089921;28;20059;-61
2022/08/23 06:31:52;;;;;;;6.93;4.75;;;15.40;99.90;;;;;;5090242;28;20051;-61
2022/08/23 06:34:32;;;;;;;4.55;3.65;;;15.50;99.90;;;;;;5089626;28;20546;-61
2022/08/23 06:37:19;;;;;;;6.63;4.32;;;15.60;99.90;;;;;;5090247;28;20051;-61
2022/08/23 06:39:59;;;;;;;10.60;4.43;;;15.70;99.90;;;;;;5090655;28;20054;-60
2022/08/23 06:42:45;;;;;;;8.55;4.10;;;15.90;99.90;;;;;;5091777;28;20181;-60
2022/08/23 06:45:17;;;;;;;8.32;4.93;;;16.00;99.90;;;;;;5073861;28;20060;-61
2022/08/23 06:47:47;;;;;;;262.05;34.20;;;16.10;99.90;;;;;;5089621;28;20055;-61
2022/08/23 06:50:14;;;;;;;;;;;16.20;99.90;;;;;;5092627;28;20047;-60
2022/08/23 06:52:59;;;;;;;10.07;4.57;;;16.30;99.90;;;;;;5091006;28;19931;-60
2022/08/23 06:56:02;;;;;;;6.65;4.13;;;16.40;99.90;;;;;;5085334;28;20052;-60
2022/08/23 06:58:39;;;;;;;5.75;4.93;;;16.50;99.90;;;;;;5073608;28;20890;-59
2022/08/23 07:01:31;;;;;;;6.50;3.90;;;16.60;99.90;;;;;;5077403;28;20428;-61
2022/08/23 07:04:30;;;;;;;8.35;4.25;;;16.80;99.90;;;;;;5069805;28;20045;-61
2022/08/23 07:07:13;;;;;;;7.85;4.28;;;16.90;99.90;;;;;;5061883;28;20608;-60
2022/08/23 07:09:40;;;;;;;5.18;4.05;;;17.10;99.90;;;;;;5039916;28;20048;-60
2022/08/23 07:12:07;;;;;;;3.90;3.40;;;17.20;99.90;;;;;;5075701;28;21010;-60
2022/08/23 07:14:37;;;;;;;5.45;3.78;;;17.40;99.90;;;;;;5074996;28;20080;-61
2022/08/23 07:17:04;;;;;;;7.18;4.07;;;17.50;99.90;;;;;;5075919;28;20056;-60
2022/08/23 07:19:34;;;;;;;7.40;3.60;;;17.60;99.90;;;;;;5077201;28;20048;-60
2022/08/23 07:22:03;;;;;;;6.13;4.25;;;17.80;99.90;;;;;;5075684;28;20966;-61
2022/08/23 07:24:32;;;;;;;6.85;3.80;;;17.90;99.90;;;;;;5075053;28;20822;-60
2022/08/23 07:27:05;;;;;;;7.82;4.93;;;18.00;99.90;;;;;;5075386;28;20051;-59
2022/08/23 07:29:36;;;;;;;7.43;4.63;;;18.10;99.90;;;;;;5075485;28;20048;-62
2022/08/23 07:32:03;;;;;;;5.47;4.38;;;18.20;99.90;;;;;;5074889;28;20093;-61
2022/08/23 07:34:32;;;;;;;6.30;4.18;;;18.30;99.90;;;;;;5074124;28;20050;-61
2022/08/23 07:37:00;;;;;;;8.00;4.05;;;18.40;99.90;;;;;;5075410;28;20046;-59
2022/08/23 07:39:30;;;;;;;5.50;4.25;;;18.50;99.90;;;;;;5076024;28;20086;-60
2022/08/23 07:42:03;;;;;;;32.33;5.03;;;18.60;99.90;;;;;;5073301;28;20662;-61
2022/08/23 07:44:51;;;;;;;14.77;4.28;;;18.80;99.90;;;;;;5066433;28;20055;-61
2022/08/23 07:47:21;;;;;;;7.63;4.88;;;19.00;99.90;;;;;;5074674;28;20059;-61
2022/08/23 07:49:48;;;;;;;9.18;4.05;;;19.20;99.90;;;;;;5058546;28;20075;-62
2022/08/23 07:52:14;;;;;;;6.05;4.55;;;19.80;99.90;;;;;;5059790;28;20496;-60
2022/08/23 07:54:41;;;;;;;7.40;4.28;;;20.60;99.90;;;;;;5074969;28;20141;-51
2022/08/23 07:57:35;;;;;;;5.10;4.30;;;21.40;99.90;;;;;;5075587;28;20174;-53
2022/08/23 08:00:21;;;;;;;6.43;4.45;;;22.20;99.90;;;;;;5076669;28;20152;-54
2022/08/23 08:03:05;;;;;;;9.45;4.55;;;22.80;99.90;;;;;;5058170;28;20044;-53
2022/08/23 08:05:56;;;;;;;7.60;4.60;;;23.30;99.90;;;;;;5056202;28;20128;-51
2022/08/23 08:08:23;;;;;;;14.82;4.65;;;23.70;95.10;;;;;;5055393;28;20136;-52
2022/08/23 08:10:53;;;;;;;7.05;4.35;;;24.10;94.60;;;;;;5065007;28;20040;-54
2022/08/23 08:13:20;;;;;;;7.13;3.90;;;24.40;97.00;;;;;;5075236;28;20047;-53
2022/08/23 08:15:47;;;;;;;16.33;5.70;;;24.90;94.00;;;;;;5074628;28;20230;-53
2022/08/23 08:18:15;;;;;;;13.02;4.45;;;25.20;89.90;;;;;;5074022;28;20051;-53
2022/08/23 08:21:16;;;;;;;5.22;4.20;;;25.40;88.70;;;;;;5052810;28;20535;-53
2022/08/23 08:24:00;;;;;;;7.20;3.95;;;25.80;84.60;;;;;;5075388;28;20476;-65
2022/08/23 08:26:50;;;;;;;8.43;3.45;;;26.00;78.50;;;;;;5073445;28;20059;-64
2022/08/23 08:29:17;;;;;;;5.20;3.45;;;26.30;73.80;;;;;;5075248;28;20521;-64
2022/08/23 08:31:46;;;;;;;7.93;3.47;;;26.50;72.40;;;;;;5074968;28;20136;-63
2022/08/23 08:34:18;;;;;;;12.77;3.95;;;26.70;69.80;;;;;;5074809;28;20074;-65
2022/08/23 08:36:52;;;;;;;6.47;4.00;;;26.90;66.90;;;;;;5074596;28;20048;-64
2022/08/23 08:39:24;;;;;;;;;;;27.00;63.70;;;;;;5076183;28;20610;-64
2022/08/23 08:42:06;;;;;;;7.18;2.92;;;27.00;64.40;;;;;;5074963;28;20019;-65
2022/08/23 08:44:46;;;;;;;5.70;2.80;;;27.00;60.90;;;;;;5074448;28;20068;-63
2022/08/23 08:47:44;;;;;;;2.95;2.42;;;26.90;59.50;;;;;;5075039;28;20399;-67
2022/08/23 08:50:40;;;;;;;5.05;2.42;;;26.90;56.90;;;;;;5074174;28;20579;-66
2022/08/23 08:53:21;;;;;;;7.68;2.53;;;27.10;57.30;;;;;;5074203;28;20083;-69
2022/08/23 08:56:13;;;;;;;11.45;2.78;;;27.10;53.80;;;;;;5075952;28;20055;-67
2022/08/23 08:58:52;;;;;;;5.78;2.33;;;27.10;52.60;;;;;;5073159;28;20044;-67
2022/08/23 09:01:22;;;;;;;7.85;2.38;;;27.10;50.40;;;;;;5075501;28;20514;-68
2022/08/23 09:03:50;;;;;;;8.35;3.00;;;27.20;50.20;;;;;;5040527;28;20055;-68
2022/08/23 09:06:45;;;;;;;4.20;2.33;;;27.30;53.10;;;;;;5053725;28;20617;-70
2022/08/23 09:09:16;;;;;;;4.78;2.80;;;27.40;52.70;;;;;;5054757;28;20516;-68
2022/08/23 09:11:49;;;;;;;3.97;1.95;;;27.50;51.20;;;;;;5072587;28;20036;-66
2022/08/23 09:14:40;;;;;;;2.22;1.60;;;27.70;50.40;;;;;;5074253;28;20055;-67
2022/08/23 09:17:38;;;;;;;2.80;1.77;;;27.80;50.90;;;;;;5071432;28;20052;-67
2022/08/23 09:20:07;;;;;;;3.22;2.10;;;28.00;48.50;;;;;;5072932;28;20059;-68
2022/08/23 09:22:50;;;;;;;4.10;1.80;;;28.00;47.00;;;;;;5073304;28;21016;-66
2022/08/23 09:25:30;;;;;;;5.47;1.95;;;28.00;46.70;;;;;;5074384;28;20048;-66
2022/08/23 09:28:06;;;;;;;7.20;1.95;;;28.10;45.90;;;;;;5073425;28;20799;-72
2022/08/23 09:30:55;;;;;;;2.63;1.80;;;28.10;44.40;;;;;;5074210;28;20047;-68
2022/08/23 09:33:48;;;;;;;4.85;2.10;;;28.20;44.10;;;;;;5073429;28;20135;-67
2022/08/23 09:36:44;;;;;;;2.80;1.90;;;28.20;44.80;;;;;;5056642;28;20189;-67
2022/08/23 09:39:29;;;;;;;2.80;1.88;;;28.40;45.60;;;;;;5073730;28;20075;-67
2022/08/23 09:42:03;;;;;;;4.43;2.30;;;28.30;45.70;;;;;;5073666;28;20044;-71
2022/08/23 09:44:39;;;;;;;4.28;2.50;;;28.30;46.30;;;;;;5074056;28;20421;-69
2022/08/23 09:47:11;;;;;;;7.60;1.98;;;28.30;47.40;;;;;;5073701;28;20052;-66
2022/08/23 09:49:47;;;;;;;3.30;2.05;;;28.30;46.70;;;;;;5074864;28;20052;-66
2022/08/23 09:52:26;;;;;;;2.72;2.05;;;28.30;45.90;;;;;;5073923;28;20043;-66
2022/08/23 09:55:10;;;;;;;2.90;1.52;;;28.40;44.20;;;;;;5057886;28;20052;-67
2022/08/23 09:57:46;;;;;;;6.97;1.92;;;28.30;46.00;;;;;;5057182;28;20054;-67
2022/08/23 10:00:16;;;;;;;3.28;1.88;;;28.30;42.60;;;;;;5074125;28;20074;-66
2022/08/23 10:02:48;;;;;;;4.47;1.92;;;28.20;44.90;;;;;;5073392;28;20382;-66
2022/08/23 10:05:30;;;;;;;2.53;1.80;;;28.30;45.30;;;;;;5057888;28;20055;-65
2022/08/23 10:08:00;;;;;;;3.65;1.40;;;28.40;42.80;;;;;;5052733;28;20045;-65
2022/08/23 10:10:45;;;;;;;5.43;2.00;;;28.40;44.10;;;;;;5044027;28;20047;-66
2022/08/23 10:13:21;;;;;;;4.05;2.47;;;28.60;43.30;;;;;;5072855;28;20572;-65
2022/08/23 10:16:15;;;;;;;3.58;2.00;;;28.70;44.20;;;;;;5075276;28;20050;-66
2022/08/23 10:19:12;;;;;;;2.25;1.73;;;28.80;43.90;;;;;;5073329;28;20136;-66
2022/08/23 10:21:46;;;;;;;3.78;2.10;;;28.80;45.30;;;;;;5057335;28;20040;-65
2022/08/23 10:24:17;;;;;;;2.45;1.65;;;28.90;45.00;;;;;;5073046;28;20076;-66
2022/08/23 10:27:01;;;;;;;2.10;1.55;;;28.90;44.60;;;;;;5073616;28;20121;-66
2022/08/23 10:29:47;;;;;;;3.65;2.08;;;29.00;42.40;;;;;;5073466;28;20048;-66
2022/08/23 10:32:40;;;;;;;6.38;1.90;;;29.10;43.60;;;;;;5073439;28;20044;-65
2022/08/23 10:35:35;;;;;;;3.40;2.00;;;29.00;44.20;;;;;;5056268;28;20047;-65
2022/08/23 10:39:02;;;;;;;7.47;2.08;;;29.00;44.60;;;;;;5073146;28;20040;-65
2022/08/23 10:41:55;;;;;;;3.20;1.90;;;29.00;42.60;;;;;;5050895;28;20601;-66
2022/08/23 10:44:32;;;;;;;4.85;1.42;;;29.00;43.00;;;;;;5077793;28;20056;-66
2022/08/23 10:47:36;;;;;;;2.38;1.77;;;29.00;43.60;;;;;;5076444;28;20080;-66
2022/08/23 10:50:11;;;;;;;3.58;2.03;;;29.00;44.00;;;;;;5077155;28;20479;-66
2022/08/23 10:52:47;;;;;;;4.28;1.95;;;29.00;43.30;;;;;;5075955;28;20049;-66
2022/08/23 10:55:34;;;;;;;5.60;1.52;;;29.00;42.50;;;;;;5077046;28;20806;-67
2022/08/23 10:58:06;;;;;;;2.90;2.00;;;29.00;41.60;;;;;;5076584;28;20067;-64
2022/08/23 11:00:35;;;;;;;2.55;2.00;;;29.00;44.80;;;;;;5075395;28;20040;-65
2022/08/23 11:03:28;;;;;;;6.90;1.77;;;29.00;44.90;;;;;;5075561;28;20105;-65
2022/08/23 11:06:34;;;;;;;1.85;1.60;;;29.10;41.90;;;;;;5057933;28;20131;-65
2022/08/23 11:09:17;;;;;;;3.22;1.88;;;29.20;43.70;;;;;;5056135;28;20052;-65
2022/08/23 11:12:05;;;;;;;3.70;1.77;;;29.30;43.10;;;;;;5057460;28;20044;-65
2022/08/23 11:14:41;;;;;;;6.70;1.73;;;29.20;41.50;;;;;;5075836;28;20116;-64
2022/08/23 11:17:24;;;;;;;3.03;1.38;;;29.00;41.80;;;;;;5059913;28;20778;-65
2022/08/23 11:20:04;;;;;;;1.70;1.60;;;29.00;43.10;;;;;;5076312;28;20093;-65
2022/08/23 11:22:53;;;;;;;5.38;2.08;;;29.00;42.20;;;;;;5076355;28;20060;-65
2022/08/23 11:25:20;;;;;;;2.70;1.83;;;29.10;42.00;;;;;;5077706;28;20040;-65
2022/08/23 11:27:47;;;;;;;2.17;1.98;;;29.00;41.90;;;;;;5060083;28;20050;-65
2022/08/23 11:30:30;;;;;;;4.05;1.90;;;28.90;42.70;;;;;;5077661;28;20051;-65
2022/08/23 11:33:14;;;;;;;1.90;1.50;;;29.00;43.40;;;;;;5075956;28;20048;-65
2022/08/23 11:36:08;;;;;;;4.05;1.60;;;29.00;42.50;;;;;;5058814;28;20477;-65
2022/08/23 11:38:46;;;;;;;4.53;2.17;;;28.90;42.90;;;;;;5066399;28;20144;-65
2022/08/23 11:41:19;;;;;;;6.90;2.22;;;29.00;43.70;;;;;;5075729;28;20135;-65
2022/08/23 11:43:54;;;;;;;6.22;1.80;;;29.00;43.50;;;;;;5077702;28;20048;-65
2022/08/23 11:46:24;;;;;;;2.20;1.90;;;29.00;43.00;;;;;;5075896;28;20046;-64
2022/08/23 11:49:20;;;;;;;2.33;1.80;;;29.00;42.60;;;;;;5076187;28;20417;-65
2022/08/23 11:52:09;;;;;;;5.05;2.08;;;29.00;43.50;;;;;;5077515;28;20050;-65
2022/08/23 11:54:42;;;;;;;2.67;1.80;;;29.00;43.50;;;;;;5076899;28;20958;-65
2022/08/23 11:57:32;;;;;;;3.50;2.10;;;29.00;43.40;;;;;;5075985;28;20409;-65
2022/08/23 12:00:17;;;;;;;4.15;1.90;;;29.10;43.00;;;;;;5074124;28;20048;-65
2022/08/23 12:03:04;;;;;;;3.35;1.52;;;29.00;42.90;;;;;;5077486;28;20086;-64
2022/08/23 12:05:37;;;;;;;1.70;1.40;;;29.10;41.90;;;;;;5069446;28;20200;-67
2022/08/23 12:08:04;;;;;;;1.52;1.38;;;29.10;42.50;;;;;;5056018;28;20048;-65
2022/08/23 12:10:40;;;;;;;3.22;1.65;;;29.10;41.90;;;;;;5072791;28;20048;-65
2022/08/23 12:13:45;;;;;;;2.27;1.70;;;29.10;41.60;;;;;;5076447;28;20083;-64
2022/08/23 12:16:12;;;;;;;3.10;1.85;;;29.10;41.40;;;;;;5049351;28;20057;-65
2022/08/23 12:18:46;;;;;;;6.90;1.45;;;29.10;40.70;;;;;;5059313;28;20045;-66
2022/08/23 12:21:43;;;;;;;2.60;1.73;;;29.10;43.30;;;;;;5076602;28;20128;-65
2022/08/23 12:24:32;;;;;;;2.17;1.90;;;29.10;42.90;;;;;;5076703;28;20040;-66
2022/08/23 12:27:11;;;;;;;7.43;1.85;;;29.10;39.90;;;;;;5076773;28;20040;-65
2022/08/23 12:29:50;;;;;;;2.72;1.55;;;29.10;41.00;;;;;;5076863;28;20048;-63
2022/08/23 12:32:27;;;;;;;3.83;1.58;;;29.10;40.70;;;;;;5076484;28;20048;-63
2022/08/23 12:35:10;;;;;;;2.40;1.88;;;29.20;40.70;;;;;;5076282;28;20047;-63
2022/08/23 12:38:06;;;;;;;1.85;1.48;;;29.30;41.50;;;;;;5074146;28;20055;-65
2022/08/23 12:40:47;;;;;;;3.22;2.20;;;29.40;40.00;;;;;;5076617;28;20032;-62
2022/08/23 12:43:21;;;;;;;4.50;1.67;;;29.30;42.40;;;;;;5076048;28;20624;-62
2022/08/23 12:45:59;;;;;;;5.35;2.20;;;29.20;41.20;;;;;;5077406;28;20032;-63
2022/08/23 12:48:32;;;;;;;4.70;1.88;;;29.10;42.10;;;;;;5075709;28;20052;-63
2022/08/23 12:51:01;;;;;;;5.80;1.90;;;29.20;43.40;;;;;;5076722;28;20060;-63
2022/08/23 12:53:32;;;;;;;3.20;1.95;;;29.30;41.50;;;;;;5075759;28;20581;-63
2022/08/23 12:56:03;;;;;;;4.15;2.15;;;29.20;40.30;;;;;;5076238;28;20036;-62
2022/08/23 12:58:32;;;;;;;1.25;1.10;;;29.20;40.50;;;;;;5074653;28;20040;-62
2022/08/23 13:01:03;;;;;;;8.70;3.03;;;29.20;41.90;;;;;;5073212;28;20040;-62
2022/08/23 13:03:35;;;;;;;2.22;1.52;;;29.30;42.10;;;;;;5076223;28;20044;-62
2022/08/23 13:06:09;;;;;;;2.78;1.70;;;29.30;42.20;;;;;;5072062;28;20047;-63
2022/08/23 13:08:37;;;;;;;2.92;1.38;;;29.40;43.00;;;;;;5054569;28;20050;-63
2022/08/23 13:11:05;;;;;;;2.70;1.70;;;29.40;41.40;;;;;;5067574;28;20051;-62
2022/08/23 13:13:37;;;;;;;5.88;1.67;;;29.40;39.70;;;;;;5075148;28;20115;-63
2022/08/23 13:16:35;;;;;;;2.28;1.80;;;29.40;40.40;;;;;;5075728;28;20055;-63
2022/08/23 13:19:21;;;;;;;6.32;2.05;;;29.50;41.70;;;;;;5074545;28;20094;-63
2022/08/23 13:22:27;;;;;;;3.10;1.75;;;29.60;41.60;;;;;;5074442;28;20047;-62
2022/08/23 13:25:03;;;;;;;3.95;1.70;;;29.70;41.20;;;;;;5075290;28;20051;-62
2022/08/23 13:27:55;;;;;;;2.28;1.67;;;29.80;39.50;;;;;;5075703;28;20116;-63
2022/08/23 13:30:26;;;;;;;2.42;1.45;;;29.60;39.20;;;;;;5076221;28;20071;-62
2022/08/23 13:33:08;;;;;;;5.93;2.30;;;29.60;41.30;;;;;;5074183;28;20161;-62
2022/08/23 13:35:36;;;;;;;5.50;1.83;;;29.50;40.10;;;;;;5073555;28;20560;-62
2022/08/23 13:38:16;;;;;;;5.53;1.90;;;29.30;42.60;;;;;;5073549;28;20124;-63
2022/08/23 13:41:07;;;;;;;2.63;1.58;;;29.10;42.30;;;;;;5074799;28;20048;-62